sensor_id;sensor_type;location;lat;lon;timestamp;temperature;humidity
47757;SHT35;22147;52.388;13.390;2023-07-13T00:02:26;16.15;75.24
47757;SHT35;22147;52.388;13.390;2023-07-13T00:04:57;16.15;75.48
47757;SHT35;22147;52.388;13.390;2023-07-13T00:07:27;16.09;75.82
47757;SHT35;22147;52.388;13.390;2023-07-13T00:09:56;16.09;76.21
47757;SHT35;22147;52.388;13.390;2023-07-13T00:12:37;16.08;75.97
47757;SHT35;22147;52.388;13.390;2023-07-13T00:15:19;16.00;76.08
47757;SHT35;22147;52.388;13.390;2023-07-13T00:17:55;15.95;76.38
47757;SHT35;22147;52.388;13.390;2023-07-13T00:20:26;15.91;76.62
47757;SHT35;22147;52.388;13.390;2023-07-13T00:22:56;15.91;76.76
47757;SHT35;22147;52.388;13.390;2023-07-13T00:25:27;15.84;77.54
47757;SHT35;22147;52.388;13.390;2023-07-13T00:27:58;15.84;77.72
47757;SHT35;22147;52.388;13.390;2023-07-13T00:30:29;15.82;77.74
47757;SHT35;22147;52.388;13.390;2023-07-13T00:32:59;15.81;77.74
47757;SHT35;22147;52.388;13.390;2023-07-13T00:35:45;15.82;77.81
47757;SHT35;22147;52.388;13.390;2023-07-13T00:38:15;15.79;77.79
47757;SHT35;22147;52.388;13.390;2023-07-13T00:40:43;15.79;77.85
47757;SHT35;22147;52.388;13.390;2023-07-13T00:43:23;15.82;77.76
47757;SHT35;22147;52.388;13.390;2023-07-13T00:48:33;15.81;77.70
47757;SHT35;22147;52.388;13.390;2023-07-13T00:51:04;15.75;77.94
47757;SHT35;22147;52.388;13.390;2023-07-13T00:53:35;15.68;78.15
47757;SHT35;22147;52.388;13.390;2023-07-13T00:56:06;15.68;78.35
47757;SHT35;22147;52.388;13.390;2023-07-13T00:58:38;15.70;78.50
47757;SHT35;22147;52.388;13.390;2023-07-13T01:01:08;15.61;78.61
47757;SHT35;22147;52.388;13.390;2023-07-13T01:03:36;15.51;78.90
47757;SHT35;22147;52.388;13.390;2023-07-13T01:06:08;15.49;79.00
47757;SHT35;22147;52.388;13.390;2023-07-13T01:08:39;15.44;79.10
47757;SHT35;22147;52.388;13.390;2023-07-13T01:11:10;15.43;79.26
47757;SHT35;22147;52.388;13.390;2023-07-13T01:13:40;15.44;79.25
47757;SHT35;22147;52.388;13.390;2023-07-13T01:16:27;15.37;79.53
47757;SHT35;22147;52.388;13.390;2023-07-13T01:19:00;15.37;79.54
47757;SHT35;22147;52.388;13.390;2023-07-13T01:21:33;15.44;79.54
47757;SHT35;22147;52.388;13.390;2023-07-13T01:24:05;15.44;79.49
47757;SHT35;22147;52.388;13.390;2023-07-13T01:26:35;15.34;79.53
47757;SHT35;22147;52.388;13.390;2023-07-13T01:29:05;15.32;79.66
47757;SHT35;22147;52.388;13.390;2023-07-13T01:31:37;15.27;79.64
47757;SHT35;22147;52.388;13.390;2023-07-13T01:34:07;15.26;79.58
47757;SHT35;22147;52.388;13.390;2023-07-13T01:36:38;15.26;79.68
47757;SHT35;22147;52.388;13.390;2023-07-13T01:39:08;15.27;79.95
47757;SHT35;22147;52.388;13.390;2023-07-13T01:41:38;15.20;80.17
47757;SHT35;22147;52.388;13.390;2023-07-13T01:44:08;15.19;80.22
47757;SHT35;22147;52.388;13.390;2023-07-13T01:46:38;15.16;80.26
47757;SHT35;22147;52.388;13.390;2023-07-13T01:49:09;15.19;80.60
47757;SHT35;22147;52.388;13.390;2023-07-13T01:51:39;15.18;81.18
47757;SHT35;22147;52.388;13.390;2023-07-13T01:54:09;15.16;81.06
47757;SHT35;22147;52.388;13.390;2023-07-13T01:56:39;15.16;81.19
47757;SHT35;22147;52.388;13.390;2023-07-13T01:59:10;15.16;81.14
47757;SHT35;22147;52.388;13.390;2023-07-13T02:01:41;15.20;81.10
47757;SHT35;22147;52.388;13.390;2023-07-13T02:04:11;15.16;81.14
47757;SHT35;22147;52.388;13.390;2023-07-13T02:06:41;15.13;81.21
47757;SHT35;22147;52.388;13.390;2023-07-13T02:09:11;15.09;81.06
47757;SHT35;22147;52.388;13.390;2023-07-13T02:11:41;15.02;81.14
47757;SHT35;22147;52.388;13.390;2023-07-13T02:14:12;15.00;81.21
47757;SHT35;22147;52.388;13.390;2023-07-13T02:16:42;14.89;81.17
47757;SHT35;22147;52.388;13.390;2023-07-13T02:19:12;14.91;81.16
47757;SHT35;22147;52.388;13.390;2023-07-13T02:21:43;14.82;81.34
47757;SHT35;22147;52.388;13.390;2023-07-13T02:24:12;14.72;81.52
47757;SHT35;22147;52.388;13.390;2023-07-13T02:26:47;14.64;81.71
47757;SHT35;22147;52.388;13.390;2023-07-13T02:29:17;14.57;81.97
47757;SHT35;22147;52.388;13.390;2023-07-13T02:31:47;14.54;82.21
47757;SHT35;22147;52.388;13.390;2023-07-13T02:34:17;14.55;82.33
47757;SHT35;22147;52.388;13.390;2023-07-13T02:36:47;14.50;82.51
47757;SHT35;22147;52.388;13.390;2023-07-13T02:39:18;14.48;82.60
47757;SHT35;22147;52.388;13.390;2023-07-13T02:41:48;14.57;82.70
47757;SHT35;22147;52.388;13.390;2023-07-13T02:44:18;14.54;82.78
47757;SHT35;22147;52.388;13.390;2023-07-13T02:46:48;14.53;82.79
47757;SHT35;22147;52.388;13.390;2023-07-13T02:49:17;14.47;83.11
47757;SHT35;22147;52.388;13.390;2023-07-13T02:51:48;14.41;83.28
47757;SHT35;22147;52.388;13.390;2023-07-13T02:54:18;14.36;83.38
47757;SHT35;22147;52.388;13.390;2023-07-13T02:56:48;14.38;83.42
47757;SHT35;22147;52.388;13.390;2023-07-13T02:59:18;14.38;83.45
47757;SHT35;22147;52.388;13.390;2023-07-13T03:01:48;14.34;83.54
47757;SHT35;22147;52.388;13.390;2023-07-13T03:04:19;14.30;83.60
47757;SHT35;22147;52.388;13.390;2023-07-13T03:06:47;14.33;83.66
47757;SHT35;22147;52.388;13.390;2023-07-13T03:09:15;14.30;83.54
47757;SHT35;22147;52.388;13.390;2023-07-13T03:11:44;14.33;83.36
47757;SHT35;22147;52.388;13.390;2023-07-13T03:14:12;14.33;83.32
47757;SHT35;22147;52.388;13.390;2023-07-13T03:16:41;14.27;83.26
47757;SHT35;22147;52.388;13.390;2023-07-13T03:19:09;14.20;83.64
47757;SHT35;22147;52.388;13.390;2023-07-13T03:21:38;14.19;84.12
47757;SHT35;22147;52.388;13.390;2023-07-13T03:24:07;14.17;84.32
47757;SHT35;22147;52.388;13.390;2023-07-13T03:26:34;14.17;84.39
47757;SHT35;22147;52.388;13.390;2023-07-13T03:29:03;14.21;84.42
47757;SHT35;22147;52.388;13.390;2023-07-13T03:31:36;14.36;84.44
47757;SHT35;22147;52.388;13.390;2023-07-13T03:34:04;14.37;84.10
47757;SHT35;22147;52.388;13.390;2023-07-13T03:36:33;14.41;84.13
47757;SHT35;22147;52.388;13.390;2023-07-13T03:39:03;14.44;84.14
47757;SHT35;22147;52.388;13.390;2023-07-13T03:41:32;14.47;84.19
47757;SHT35;22147;52.388;13.390;2023-07-13T03:44:00;14.47;84.25
47757;SHT35;22147;52.388;13.390;2023-07-13T03:46:29;14.55;84.24
47757;SHT35;22147;52.388;13.390;2023-07-13T03:48:59;14.67;83.99
47757;SHT35;22147;52.388;13.390;2023-07-13T03:51:29;14.67;83.86
47757;SHT35;22147;52.388;13.390;2023-07-13T03:53:59;14.68;83.87
47757;SHT35;22147;52.388;13.390;2023-07-13T03:56:27;14.72;83.91
47757;SHT35;22147;52.388;13.390;2023-07-13T03:58:57;14.78;83.88
47757;SHT35;22147;52.388;13.390;2023-07-13T04:01:27;14.84;83.67
47757;SHT35;22147;52.388;13.390;2023-07-13T04:03:57;14.93;83.39
47757;SHT35;22147;52.388;13.390;2023-07-13T04:06:31;14.99;83.15
47757;SHT35;22147;52.388;13.390;2023-07-13T04:09:03;15.05;82.96
47757;SHT35;22147;52.388;13.390;2023-07-13T04:11:35;15.10;82.84
47757;SHT35;22147;52.388;13.390;2023-07-13T04:14:05;15.15;82.64
47757;SHT35;22147;52.388;13.390;2023-07-13T04:16:33;15.23;82.41
47757;SHT35;22147;52.388;13.390;2023-07-13T04:19:04;15.32;82.25
47757;SHT35;22147;52.388;13.390;2023-07-13T04:21:33;15.37;81.99
47757;SHT35;22147;52.388;13.390;2023-07-13T04:24:01;15.46;81.91
47757;SHT35;22147;52.388;13.390;2023-07-13T04:26:30;15.51;81.64
47757;SHT35;22147;52.388;13.390;2023-07-13T04:29:00;15.55;81.54
47757;SHT35;22147;52.388;13.390;2023-07-13T04:31:31;15.65;81.50
47757;SHT35;22147;52.388;13.390;2023-07-13T04:34:01;15.71;81.31
47757;SHT35;22147;52.388;13.390;2023-07-13T04:36:31;15.78;81.06
47757;SHT35;22147;52.388;13.390;2023-07-13T04:39:01;15.84;80.84
47757;SHT35;22147;52.388;13.390;2023-07-13T04:41:30;15.92;81.00
47757;SHT35;22147;52.388;13.390;2023-07-13T04:44:00;16.00;80.92
47757;SHT35;22147;52.388;13.390;2023-07-13T04:46:32;16.09;80.79
47757;SHT35;22147;52.388;13.390;2023-07-13T04:49:03;16.22;80.38
47757;SHT35;22147;52.388;13.390;2023-07-13T04:51:33;16.30;80.19
47757;SHT35;22147;52.388;13.390;2023-07-13T04:54:01;16.37;79.94
47757;SHT35;22147;52.388;13.390;2023-07-13T04:56:30;16.50;79.64
47757;SHT35;22147;52.388;13.390;2023-07-13T04:59:00;16.63;79.60
47757;SHT35;22147;52.388;13.390;2023-07-13T05:01:30;16.83;78.98
47757;SHT35;22147;52.388;13.390;2023-07-13T05:04:00;16.92;78.69
47757;SHT35;22147;52.388;13.390;2023-07-13T05:06:30;17.12;78.29
47757;SHT35;22147;52.388;13.390;2023-07-13T05:09:01;17.29;77.85
47757;SHT35;22147;52.388;13.390;2023-07-13T05:11:31;17.35;77.62
47757;SHT35;22147;52.388;13.390;2023-07-13T05:14:01;17.56;77.28
47757;SHT35;22147;52.388;13.390;2023-07-13T05:16:31;17.63;77.27
47757;SHT35;22147;52.388;13.390;2023-07-13T05:19:02;17.71;77.54
47757;SHT35;22147;52.388;13.390;2023-07-13T05:21:31;17.83;77.30
47757;SHT35;22147;52.388;13.390;2023-07-13T05:24:02;17.91;76.87
47757;SHT35;22147;52.388;13.390;2023-07-13T05:26:52;18.17;76.41
47757;SHT35;22147;52.388;13.390;2023-07-13T05:29:23;18.35;75.56
47757;SHT35;22147;52.388;13.390;2023-07-13T05:31:54;18.53;74.61
47757;SHT35;22147;52.388;13.390;2023-07-13T05:34:22;19.02;73.41
47757;SHT35;22147;52.388;13.390;2023-07-13T05:36:51;19.62;71.62
47757;SHT35;22147;52.388;13.390;2023-07-13T05:39:22;19.78;70.59
47757;SHT35;22147;52.388;13.390;2023-07-13T05:41:50;19.86;70.37
47757;SHT35;22147;52.388;13.390;2023-07-13T05:44:18;19.96;69.85
47757;SHT35;22147;52.388;13.390;2023-07-13T05:46:46;20.05;68.64
47757;SHT35;22147;52.388;13.390;2023-07-13T05:49:16;20.08;68.54
47757;SHT35;22147;52.388;13.390;2023-07-13T05:51:46;20.26;68.44
47757;SHT35;22147;52.388;13.390;2023-07-13T05:54:16;20.45;67.92
47757;SHT35;22147;52.388;13.390;2023-07-13T05:56:46;20.63;67.19
47757;SHT35;22147;52.388;13.390;2023-07-13T05:59:18;20.81;65.64
47757;SHT35;22147;52.388;13.390;2023-07-13T06:01:46;20.92;64.14
47757;SHT35;22147;52.388;13.390;2023-07-13T06:04:16;20.96;63.32
47757;SHT35;22147;52.388;13.390;2023-07-13T06:06:46;21.15;62.88
47757;SHT35;22147;52.388;13.390;2023-07-13T06:09:16;21.32;62.50
47757;SHT35;22147;52.388;13.390;2023-07-13T06:11:46;21.47;62.59
47757;SHT35;22147;52.388;13.390;2023-07-13T06:14:16;21.67;61.76
47757;SHT35;22147;52.388;13.390;2023-07-13T06:16:46;21.91;62.25
47757;SHT35;22147;52.388;13.390;2023-07-13T06:19:13;22.20;60.90
47757;SHT35;22147;52.388;13.390;2023-07-13T06:21:43;22.36;60.43
47757;SHT35;22147;52.388;13.390;2023-07-13T06:24:13;22.53;59.00
47757;SHT35;22147;52.388;13.390;2023-07-13T06:26:43;22.56;57.16
47757;SHT35;22147;52.388;13.390;2023-07-13T06:29:13;22.58;58.06
47757;SHT35;22147;52.388;13.390;2023-07-13T06:31:43;22.73;57.36
47757;SHT35;22147;52.388;13.390;2023-07-13T06:34:13;22.90;57.05
47757;SHT35;22147;52.388;13.390;2023-07-13T06:36:44;22.96;57.50
47757;SHT35;22147;52.388;13.390;2023-07-13T06:39:13;22.98;56.95
47757;SHT35;22147;52.388;13.390;2023-07-13T06:41:44;23.20;57.00
47757;SHT35;22147;52.388;13.390;2023-07-13T06:44:14;23.28;55.65
47757;SHT35;22147;52.388;13.390;2023-07-13T06:46:43;23.42;55.14
47757;SHT35;22147;52.388;13.390;2023-07-13T06:49:14;23.51;54.71
47757;SHT35;22147;52.388;13.390;2023-07-13T06:51:42;23.54;54.41
47757;SHT35;22147;52.388;13.390;2023-07-13T06:54:10;23.69;54.61
47757;SHT35;22147;52.388;13.390;2023-07-13T06:56:38;23.99;53.68
47757;SHT35;22147;52.388;13.390;2023-07-13T06:59:07;24.17;53.45
47757;SHT35;22147;52.388;13.390;2023-07-13T07:01:35;24.24;52.83
47757;SHT35;22147;52.388;13.390;2023-07-13T07:04:09;24.37;51.51
47757;SHT35;22147;52.388;13.390;2023-07-13T07:06:39;24.39;51.22
47757;SHT35;22147;52.388;13.390;2023-07-13T07:09:10;24.47;51.13
47757;SHT35;22147;52.388;13.390;2023-07-13T07:11:40;24.52;51.69
47757;SHT35;22147;52.388;13.390;2023-07-13T07:14:31;24.50;51.47
47757;SHT35;22147;52.388;13.390;2023-07-13T07:17:01;24.31;51.80
47757;SHT35;22147;52.388;13.390;2023-07-13T07:19:32;24.47;53.01
47757;SHT35;22147;52.388;13.390;2023-07-13T07:22:03;24.54;51.60
47757;SHT35;22147;52.388;13.390;2023-07-13T07:24:34;24.67;52.16
47757;SHT35;22147;52.388;13.390;2023-07-13T07:27:04;24.89;50.83
47757;SHT35;22147;52.388;13.390;2023-07-13T07:29:38;25.02;50.90
47757;SHT35;22147;52.388;13.390;2023-07-13T07:32:14;25.30;50.65
47757;SHT35;22147;52.388;13.390;2023-07-13T07:35:05;25.69;48.79
47757;SHT35;22147;52.388;13.390;2023-07-13T07:37:36;25.76;48.27
47757;SHT35;22147;52.388;13.390;2023-07-13T07:40:09;25.65;47.83
47757;SHT35;22147;52.388;13.390;2023-07-13T07:42:42;25.65;48.48
47757;SHT35;22147;52.388;13.390;2023-07-13T07:45:13;25.74;48.70
47757;SHT35;22147;52.388;13.390;2023-07-13T07:47:44;25.87;49.59
47757;SHT35;22147;52.388;13.390;2023-07-13T07:50:14;25.90;49.19
47757;SHT35;22147;52.388;13.390;2023-07-13T07:52:45;26.01;48.04
47757;SHT35;22147;52.388;13.390;2023-07-13T07:55:15;26.08;48.71
47757;SHT35;22147;52.388;13.390;2023-07-13T07:57:49;26.55;47.99
47757;SHT35;22147;52.388;13.390;2023-07-13T08:00:23;26.65;46.04
47757;SHT35;22147;52.388;13.390;2023-07-13T08:02:56;26.76;47.40
47757;SHT35;22147;52.388;13.390;2023-07-13T08:05:46;26.72;46.32
47757;SHT35;22147;52.388;13.390;2023-07-13T08:08:36;26.10;47.43
47757;SHT35;22147;52.388;13.390;2023-07-13T08:11:09;25.65;48.02
47757;SHT35;22147;52.388;13.390;2023-07-13T08:13:42;25.03;49.37
47757;SHT35;22147;52.388;13.390;2023-07-13T08:16:13;24.65;50.21
47757;SHT35;22147;52.388;13.390;2023-07-13T08:18:43;24.37;51.23
47757;SHT35;22147;52.388;13.390;2023-07-13T08:21:14;24.30;52.59
47757;SHT35;22147;52.388;13.390;2023-07-13T08:23:44;24.34;51.71
47757;SHT35;22147;52.388;13.390;2023-07-13T08:26:14;24.33;51.04
47757;SHT35;22147;52.388;13.390;2023-07-13T08:28:44;24.39;51.46
47757;SHT35;22147;52.388;13.390;2023-07-13T08:31:15;24.59;50.65
47757;SHT35;22147;52.388;13.390;2023-07-13T08:33:45;24.64;50.76
47757;SHT35;22147;52.388;13.390;2023-07-13T08:36:15;24.48;50.78
47757;SHT35;22147;52.388;13.390;2023-07-13T08:38:46;24.43;50.39
47757;SHT35;22147;52.388;13.390;2023-07-13T08:41:18;24.45;50.16
47757;SHT35;22147;52.388;13.390;2023-07-13T08:43:59;24.61;49.81
47757;SHT35;22147;52.388;13.390;2023-07-13T08:46:42;24.96;49.63
47757;SHT35;22147;52.388;13.390;2023-07-13T08:49:22;25.18;49.42
47757;SHT35;22147;52.388;13.390;2023-07-13T08:51:58;25.50;48.98
47757;SHT35;22147;52.388;13.390;2023-07-13T08:54:49;25.78;48.16
47757;SHT35;22147;52.388;13.390;2023-07-13T08:57:33;26.00;46.98
47757;SHT35;22147;52.388;13.390;2023-07-13T09:00:02;25.94;46.44
47757;SHT35;22147;52.388;13.390;2023-07-13T09:02:57;25.95;48.90
47757;SHT35;22147;52.388;13.390;2023-07-13T09:05:42;26.29;46.07
47757;SHT35;22147;52.388;13.390;2023-07-13T09:12:00;26.24;45.32
47757;SHT35;22147;52.388;13.390;2023-07-13T09:14:45;26.08;45.76
47757;SHT35;22147;52.388;13.390;2023-07-13T09:17:48;26.15;44.10
47757;SHT35;22147;52.388;13.390;2023-07-13T09:20:35;26.24;41.85
47757;SHT35;22147;52.388;13.390;2023-07-13T09:23:23;26.18;42.50
47757;SHT35;22147;52.388;13.390;2023-07-13T09:26:19;26.05;43.41
47757;SHT35;22147;52.388;13.390;2023-07-13T09:29:03;25.49;45.25
47757;SHT35;22147;52.388;13.390;2023-07-13T09:31:47;25.25;44.11
47757;SHT35;22147;52.388;13.390;2023-07-13T09:34:19;24.91;46.19
47757;SHT35;22147;52.388;13.390;2023-07-13T09:36:50;24.67;45.17
47757;SHT35;22147;52.388;13.390;2023-07-13T09:39:41;24.34;45.87
47757;SHT35;22147;52.388;13.390;2023-07-13T09:42:19;24.20;46.51
47757;SHT35;22147;52.388;13.390;2023-07-13T09:45:01;24.14;45.94
47757;SHT35;22147;52.388;13.390;2023-07-13T09:47:40;24.13;47.33
47757;SHT35;22147;52.388;13.390;2023-07-13T09:50:16;24.00;47.39
47757;SHT35;22147;52.388;13.390;2023-07-13T09:52:50;23.85;48.34
47757;SHT35;22147;52.388;13.390;2023-07-13T09:55:39;23.81;49.61
47757;SHT35;22147;52.388;13.390;2023-07-13T09:58:22;23.96;49.52
47757;SHT35;22147;52.388;13.390;2023-07-13T10:01:04;24.39;47.89
47757;SHT35;22147;52.388;13.390;2023-07-13T10:03:39;24.77;48.13
47757;SHT35;22147;52.388;13.390;2023-07-13T10:06:21;25.40;46.59
47757;SHT35;22147;52.388;13.390;2023-07-13T10:08:51;25.50;46.71
47757;SHT35;22147;52.388;13.390;2023-07-13T10:11:36;25.03;46.07
47757;SHT35;22147;52.388;13.390;2023-07-13T10:14:22;24.59;48.10
47757;SHT35;22147;52.388;13.390;2023-07-13T10:17:04;24.14;48.19
47757;SHT35;22147;52.388;13.390;2023-07-13T10:19:35;23.99;48.86
47757;SHT35;22147;52.388;13.390;2023-07-13T10:22:29;23.93;48.35
47757;SHT35;22147;52.388;13.390;2023-07-13T10:25:21;23.83;46.84
47757;SHT35;22147;52.388;13.390;2023-07-13T10:28:37;23.88;48.55
47757;SHT35;22147;52.388;13.390;2023-07-13T10:31:15;24.33;47.82
47757;SHT35;22147;52.388;13.390;2023-07-13T10:33:47;24.99;47.66
47757;SHT35;22147;52.388;13.390;2023-07-13T10:36:35;25.71;44.38
47757;SHT35;22147;52.388;13.390;2023-07-13T10:39:23;25.70;44.92
47757;SHT35;22147;52.388;13.390;2023-07-13T10:42:08;25.22;44.14
47757;SHT35;22147;52.388;13.390;2023-07-13T10:44:44;25.05;44.95
47757;SHT35;22147;52.388;13.390;2023-07-13T10:47:17;24.94;46.19
47757;SHT35;22147;52.388;13.390;2023-07-13T10:49:58;25.03;46.85
47757;SHT35;22147;52.388;13.390;2023-07-13T10:53:03;25.02;45.93
47757;SHT35;22147;52.388;13.390;2023-07-13T10:58:42;24.72;45.74
47757;SHT35;22147;52.388;13.390;2023-07-13T11:01:18;24.75;44.58
47757;SHT35;22147;52.388;13.390;2023-07-13T11:04:03;25.18;44.84
47757;SHT35;22147;52.388;13.390;2023-07-13T11:06:43;25.45;43.96
47757;SHT35;22147;52.388;13.390;2023-07-13T11:09:41;25.76;45.17
47757;SHT35;22147;52.388;13.390;2023-07-13T11:25:40;25.73;42.44
47757;SHT35;22147;52.388;13.390;2023-07-13T11:33:56;25.77;39.74
47757;SHT35;22147;52.388;13.390;2023-07-13T11:36:37;25.66;39.30
47757;SHT35;22147;52.388;13.390;2023-07-13T11:39:20;25.81;41.21
47757;SHT35;22147;52.388;13.390;2023-07-13T11:42:00;26.18;40.01
47757;SHT35;22147;52.388;13.390;2023-07-13T11:44:34;26.17;38.03
47757;SHT35;22147;52.388;13.390;2023-07-13T11:47:16;26.13;39.02
47757;SHT35;22147;52.388;13.390;2023-07-13T11:49:55;26.15;40.14
47757;SHT35;22147;52.388;13.390;2023-07-13T11:52:36;26.20;39.84
47757;SHT35;22147;52.388;13.390;2023-07-13T11:55:18;26.22;39.64
47757;SHT35;22147;52.388;13.390;2023-07-13T11:58:00;26.21;40.66
47757;SHT35;22147;52.388;13.390;2023-07-13T12:00:33;26.36;39.84
47757;SHT35;22147;52.388;13.390;2023-07-13T12:03:05;26.42;41.01
47757;SHT35;22147;52.388;13.390;2023-07-13T12:05:36;26.65;39.71
47757;SHT35;22147;52.388;13.390;2023-07-13T12:08:11;26.53;39.16
47757;SHT35;22147;52.388;13.390;2023-07-13T12:11:19;26.68;40.07
47757;SHT35;22147;52.388;13.390;2023-07-13T12:13:50;26.75;37.34
47757;SHT35;22147;52.388;13.390;2023-07-13T12:16:33;26.70;38.52
47757;SHT35;22147;52.388;13.390;2023-07-13T12:19:09;26.72;37.35
47757;SHT35;22147;52.388;13.390;2023-07-13T12:21:44;26.58;36.77
47757;SHT35;22147;52.388;13.390;2023-07-13T12:24:19;26.22;38.61
47757;SHT35;22147;52.388;13.390;2023-07-13T12:27:03;26.28;37.53
47757;SHT35;22147;52.388;13.390;2023-07-13T12:29:34;26.41;38.47
47757;SHT35;22147;52.388;13.390;2023-07-13T12:32:09;26.48;38.32
47757;SHT35;22147;52.388;13.390;2023-07-13T12:35:02;26.55;37.85
47757;SHT35;22147;52.388;13.390;2023-07-13T12:37:37;26.55;39.73
47757;SHT35;22147;52.388;13.390;2023-07-13T12:40:17;26.70;39.14
47757;SHT35;22147;52.388;13.390;2023-07-13T12:42:52;26.63;40.87
47757;SHT35;22147;52.388;13.390;2023-07-13T12:45:27;26.63;39.10
47757;SHT35;22147;52.388;13.390;2023-07-13T12:48:16;26.80;39.30
47757;SHT35;22147;52.388;13.390;2023-07-13T12:51:01;26.80;38.65
47757;SHT35;22147;52.388;13.390;2023-07-13T12:53:39;26.69;38.74
47757;SHT35;22147;52.388;13.390;2023-07-13T12:56:26;26.38;38.36
47757;SHT35;22147;52.388;13.390;2023-07-13T12:59:04;26.01;39.43
47757;SHT35;22147;52.388;13.390;2023-07-13T13:01:35;26.05;38.38
47757;SHT35;22147;52.388;13.390;2023-07-13T13:04:10;26.18;38.21
47757;SHT35;22147;52.388;13.390;2023-07-13T13:06:43;26.38;39.27
47757;SHT35;22147;52.388;13.390;2023-07-13T13:09:17;26.65;38.65
47757;SHT35;22147;52.388;13.390;2023-07-13T13:11:48;26.82;38.89
47757;SHT35;22147;52.388;13.390;2023-07-13T13:14:20;26.72;38.77
47757;SHT35;22147;52.388;13.390;2023-07-13T13:16:53;26.41;37.78
47757;SHT35;22147;52.388;13.390;2023-07-13T13:19:28;26.10;39.06
47757;SHT35;22147;52.388;13.390;2023-07-13T13:21:57;26.08;40.23
47757;SHT35;22147;52.388;13.390;2023-07-13T13:24:28;26.28;39.46
47757;SHT35;22147;52.388;13.390;2023-07-13T13:26:57;26.45;39.66
47757;SHT35;22147;52.388;13.390;2023-07-13T13:29:25;26.49;39.21
47757;SHT35;22147;52.388;13.390;2023-07-13T13:31:56;26.65;39.73
47757;SHT35;22147;52.388;13.390;2023-07-13T13:34:25;26.80;39.22
47757;SHT35;22147;52.388;13.390;2023-07-13T13:36:55;26.96;37.78
47757;SHT35;22147;52.388;13.390;2023-07-13T13:39:38;26.90;39.44
47757;SHT35;22147;52.388;13.390;2023-07-13T13:42:11;27.37;37.69
47757;SHT35;22147;52.388;13.390;2023-07-13T13:44:38;27.45;37.78
47757;SHT35;22147;52.388;13.390;2023-07-13T13:47:32;27.28;37.13
47757;SHT35;22147;52.388;13.390;2023-07-13T13:50:21;27.57;36.86
47757;SHT35;22147;52.388;13.390;2023-07-13T13:52:54;27.54;36.92
47757;SHT35;22147;52.388;13.390;2023-07-13T13:55:24;27.59;34.62
47757;SHT35;22147;52.388;13.390;2023-07-13T13:57:53;27.62;35.09
47757;SHT35;22147;52.388;13.390;2023-07-13T14:00:23;27.64;34.59
47757;SHT35;22147;52.388;13.390;2023-07-13T14:02:53;27.07;35.99
47757;SHT35;22147;52.388;13.390;2023-07-13T14:05:25;26.58;37.30
47757;SHT35;22147;52.388;13.390;2023-07-13T14:07:56;26.11;39.30
47757;SHT35;22147;52.388;13.390;2023-07-13T14:10:27;26.04;39.96
47757;SHT35;22147;52.388;13.390;2023-07-13T14:12:58;26.43;39.04
47757;SHT35;22147;52.388;13.390;2023-07-13T14:15:29;26.97;39.19
47757;SHT35;22147;52.388;13.390;2023-07-13T14:18:01;27.41;36.67
47757;SHT35;22147;52.388;13.390;2023-07-13T14:20:29;27.37;36.95
47757;SHT35;22147;52.388;13.390;2023-07-13T14:22:57;27.16;37.93
47757;SHT35;22147;52.388;13.390;2023-07-13T14:25:26;26.59;38.81
47757;SHT35;22147;52.388;13.390;2023-07-13T14:27:59;26.53;38.76
47757;SHT35;22147;52.388;13.390;2023-07-13T14:30:27;26.80;36.62
47757;SHT35;22147;52.388;13.390;2023-07-13T14:32:57;26.87;37.24
47757;SHT35;22147;52.388;13.390;2023-07-13T14:35:27;26.65;37.93
47757;SHT35;22147;52.388;13.390;2023-07-13T14:37:59;26.05;39.04
47757;SHT35;22147;52.388;13.390;2023-07-13T14:40:31;26.18;39.08
47757;SHT35;22147;52.388;13.390;2023-07-13T14:43:00;26.63;39.07
47757;SHT35;22147;52.388;13.390;2023-07-13T14:45:31;26.80;39.10
47757;SHT35;22147;52.388;13.390;2023-07-13T14:48:01;26.96;37.86
47757;SHT35;22147;52.388;13.390;2023-07-13T14:50:33;27.23;37.44
47757;SHT35;22147;52.388;13.390;2023-07-13T14:53:02;27.40;37.48
47757;SHT35;22147;52.388;13.390;2023-07-13T14:55:33;27.76;37.83
47757;SHT35;22147;52.388;13.390;2023-07-13T14:58:03;28.06;35.89
47757;SHT35;22147;52.388;13.390;2023-07-13T15:00:33;28.17;36.53
47757;SHT35;22147;52.388;13.390;2023-07-13T15:03:05;28.25;35.76
47757;SHT35;22147;52.388;13.390;2023-07-13T15:05:39;28.29;34.64
47757;SHT35;22147;52.388;13.390;2023-07-13T15:08:09;28.25;35.51
47757;SHT35;22147;52.388;13.390;2023-07-13T15:10:38;28.19;34.70
47757;SHT35;22147;52.388;13.390;2023-07-13T15:13:20;28.37;34.62
47757;SHT35;22147;52.388;13.390;2023-07-13T15:15:52;28.20;33.91
47757;SHT35;22147;52.388;13.390;2023-07-13T15:18:25;28.10;33.20
47757;SHT35;22147;52.388;13.390;2023-07-13T15:20:55;28.02;34.01
47757;SHT35;22147;52.388;13.390;2023-07-13T15:23:25;27.97;34.08
47757;SHT35;22147;52.388;13.390;2023-07-13T15:25:55;27.95;34.11
47757;SHT35;22147;52.388;13.390;2023-07-13T15:28:25;27.95;33.88
47757;SHT35;22147;52.388;13.390;2023-07-13T15:30:53;27.74;35.35
47757;SHT35;22147;52.388;13.390;2023-07-13T15:33:29;27.61;34.86
47757;SHT35;22147;52.388;13.390;2023-07-13T15:35:58;27.65;35.31
47757;SHT35;22147;52.388;13.390;2023-07-13T15:38:30;27.82;34.94
47757;SHT35;22147;52.388;13.390;2023-07-13T15:41:00;28.02;35.50
47757;SHT35;22147;52.388;13.390;2023-07-13T15:47:52;27.79;33.67
47757;SHT35;22147;52.388;13.390;2023-07-13T15:50:25;27.74;34.51
47757;SHT35;22147;52.388;13.390;2023-07-13T15:52:59;27.85;34.08
47757;SHT35;22147;52.388;13.390;2023-07-13T15:55:38;27.95;33.67
47757;SHT35;22147;52.388;13.390;2023-07-13T15:58:12;27.75;35.52
47757;SHT35;22147;52.388;13.390;2023-07-13T16:00:43;28.09;34.51
47757;SHT35;22147;52.388;13.390;2023-07-13T16:03:14;28.25;33.70
47757;SHT35;22147;52.388;13.390;2023-07-13T16:05:45;27.96;33.30
47757;SHT35;22147;52.388;13.390;2023-07-13T16:08:30;27.81;33.44
47757;SHT35;22147;52.388;13.390;2023-07-13T16:11:00;27.55;33.36
47757;SHT35;22147;52.388;13.390;2023-07-13T16:13:30;27.76;32.53
47757;SHT35;22147;52.388;13.390;2023-07-13T16:16:00;27.96;32.56
47757;SHT35;22147;52.388;13.390;2023-07-13T16:18:30;27.96;32.98
47757;SHT35;22147;52.388;13.390;2023-07-13T16:21:01;28.12;33.53
47757;SHT35;22147;52.388;13.390;2023-07-13T16:23:32;28.15;32.56
47757;SHT35;22147;52.388;13.390;2023-07-13T16:26:20;28.26;32.36
47757;SHT35;22147;52.388;13.390;2023-07-13T16:28:51;28.47;31.98